createdAt,value
2023-02-06T00:03:48.157Z,100097.97
2023-02-06T00:07:50.151Z,100092.72
2023-02-06T00:11:52.191Z,100099.75
2023-02-06T00:15:54.213Z,100107.38
2023-02-06T00:19:56.232Z,100117.88
2023-02-06T00:24:00.944Z,100113.69
2023-02-06T00:28:03.060Z,100116.94
2023-02-06T00:32:05.313Z,100115.13
2023-02-06T00:36:08.935Z,100117.88
2023-02-06T00:40:11.494Z,100111.88
2023-02-06T00:44:13.510Z,100109.53
2023-02-06T00:48:16.626Z,100120.72
2023-02-06T00:52:18.649Z,100125.78
2023-02-06T00:56:20.891Z,100131.09
2023-02-06T01:00:22.987Z,100132.34
2023-02-06T01:04:25.019Z,100139.56
2023-02-06T01:08:27.064Z,100133.72
2023-02-06T01:12:29.082Z,100130.38
2023-02-06T01:16:31.097Z,100133.16
2023-02-06T01:20:33.196Z,100134.00
2023-02-06T01:24:36.182Z,100150.50
2023-02-06T01:28:39.959Z,100149.63
2023-02-06T01:32:43.049Z,100145.19
2023-02-06T01:36:45.024Z,100142.50
2023-02-06T01:40:47.037Z,100140.47
2023-02-06T01:44:49.084Z,100138.53
2023-02-06T01:48:53.768Z,100139.41
2023-02-06T01:52:56.566Z,100140.25
2023-02-06T01:57:02.048Z,100135.91
2023-02-06T02:01:05.735Z,100119.44
2023-02-06T02:05:09.712Z,100121.97
2023-02-06T02:09:13.186Z,100124.25
2023-02-06T02:13:16.772Z,100114.75
2023-02-06T02:17:31.203Z,100117.44
2023-02-06T02:22:13.028Z,100105.09
2023-02-06T02:26:54.124Z,100114.66
2023-02-06T02:31:34.735Z,100099.75
2023-02-06T02:35:39.857Z,100101.47
2023-02-06T02:39:48.092Z,100106.72
2023-02-06T02:43:56.292Z,100102.34
2023-02-06T02:48:06.535Z,100104.06
2023-02-06T02:52:08.765Z,100103.00
2023-02-06T02:56:22.352Z,100096.84
2023-02-06T03:00:26.427Z,100104.44
2023-02-06T03:04:36.866Z,100107.91
2023-02-06T03:08:54.241Z,100111.38
2023-02-06T03:13:09.923Z,100133.03
2023-02-06T03:17:18.143Z,100126.25
2023-02-06T03:21:22.810Z,100116.84
2023-02-06T03:25:36.943Z,100122.13
2023-02-06T03:29:41.556Z,100113.38
2023-02-06T03:33:55.490Z,100110.88
2023-02-06T03:37:57.910Z,100111.75
2023-02-06T03:42:03.703Z,100111.88
2023-02-06T03:46:07.237Z,100112.72
2023-02-06T03:50:12.099Z,100122.31
2023-02-06T03:54:18.956Z,100126.00
2023-02-06T03:58:22.433Z,100116.69
2023-02-06T04:02:26.539Z,100129.75
2023-02-06T04:06:28.632Z,100119.41
2023-02-06T04:10:30.700Z,100121.16
2023-02-06T04:14:32.802Z,100128.19
2023-02-06T04:18:34.820Z,100134.22
2023-02-06T04:22:36.927Z,100128.19
2023-02-06T04:26:38.919Z,100132.47
2023-02-06T04:30:41.078Z,100129.59
2023-02-06T04:34:43.165Z,100136.28
2023-02-06T04:38:45.168Z,100149.81
2023-02-06T04:42:47.481Z,100151.44
2023-02-06T04:46:49.874Z,100151.88
2023-02-06T04:50:52.397Z,100159.41
2023-02-06T04:54:54.380Z,100143.91
2023-02-06T04:58:56.729Z,100138.72
2023-02-06T05:02:58.801Z,100138.03
2023-02-06T05:07:00.789Z,100137.25
2023-02-06T05:11:02.776Z,100138.88
2023-02-06T05:15:04.992Z,100142.19
2023-02-06T05:19:07.102Z,100137.69
2023-02-06T05:23:09.742Z,100129.88
2023-02-06T05:27:11.740Z,100136.81
2023-02-06T05:31:19.799Z,100140.22
2023-02-06T05:35:22.164Z,100139.09
2023-02-06T05:39:24.176Z,100138.00
2023-02-06T05:43:26.307Z,100130.13
2023-02-06T05:47:28.302Z,100138.06
2023-02-06T05:51:30.399Z,100135.41
2023-02-06T05:55:32.401Z,100131.94
2023-02-06T05:59:34.421Z,100131.06
2023-02-06T06:03:38.348Z,100123.34
2023-02-06T06:07:40.767Z,100129.50
2023-02-06T06:11:42.764Z,100119.16
2023-02-06T06:15:44.853Z,100138.00
2023-02-06T06:19:46.874Z,100131.00
2023-02-06T06:23:48.888Z,100125.78
2023-02-06T06:27:50.905Z,100118.94
2023-02-06T06:31:53.279Z,100128.44
2023-02-06T06:35:55.368Z,100141.28
2023-02-06T06:39:57.409Z,100138.41
2023-02-06T06:44:00.640Z,100143.44
2023-02-06T06:48:02.789Z,100129.44
2023-02-06T06:52:08.819Z,100136.09
2023-02-06T06:56:15.760Z,100135.03
2023-02-06T07:00:18.102Z,100124.28
2023-02-06T07:04:21.151Z,100140.16
2023-02-06T07:08:23.242Z,100137.19
2023-02-06T07:12:26.476Z,100137.13
2023-02-06T07:16:28.600Z,100148.16
2023-02-06T07:20:30.709Z,100146.94
2023-02-06T07:24:32.737Z,100144.16
2023-02-06T07:28:34.868Z,100152.69
2023-02-06T07:32:37.317Z,100137.22
2023-02-06T07:36:39.520Z,100140.63
2023-02-06T07:40:45.652Z,100142.09
2023-02-06T07:44:48.490Z,100153.00
2023-02-06T07:48:50.559Z,100134.03
2023-02-06T07:52:52.551Z,100130.91
2023-02-06T07:56:54.522Z,100137.88
2023-02-06T08:00:56.535Z,100136.84
2023-02-06T08:04:58.544Z,100135.75
2023-02-06T08:09:00.651Z,100145.00
2023-02-06T08:13:02.683Z,100157.00
2023-02-06T08:17:04.686Z,100163.09
2023-02-06T08:21:10.501Z,100153.22
2023-02-06T08:25:12.542Z,100144.31
2023-02-06T08:29:14.640Z,100155.09
2023-02-06T08:33:16.669Z,100159.78
2023-02-06T08:37:18.848Z,100151.63
2023-02-06T08:41:29.126Z,100158.25
2023-02-06T08:45:31.321Z,100145.63
2023-02-06T08:49:33.363Z,100152.94
2023-02-06T08:53:36.239Z,100148.94
2023-02-06T08:57:38.223Z,100153.25
2023-02-06T09:01:41.507Z,100148.19
2023-02-06T09:05:43.537Z,100148.38
2023-02-06T09:09:45.549Z,100138.31
2023-02-06T09:13:49.444Z,100151.19
2023-02-06T09:17:51.586Z,100146.94
2023-02-06T09:21:53.817Z,100152.81
2023-02-06T09:25:55.817Z,100164.25
2023-02-06T09:29:57.807Z,100159.59
2023-02-06T09:34:02.902Z,100160.44
2023-02-06T09:38:04.889Z,100155.44
2023-02-06T09:42:14.405Z,100147.91
2023-02-06T09:46:21.202Z,100154.34
2023-02-06T09:50:43.529Z,100146.28
2023-02-06T09:55:02.934Z,100144.34
2023-02-06T09:59:05.765Z,100148.84
2023-02-06T10:03:26.239Z,100132.59
2023-02-06T10:07:50.994Z,100132.44
2023-02-06T10:12:05.056Z,100131.19
2023-02-06T10:16:11.925Z,100111.59
2023-02-06T10:20:30.740Z,100113.50
2023-02-06T10:24:59.676Z,100101.44
2023-02-06T10:29:01.773Z,100098.97
2023-02-06T10:33:25.268Z,100079.16
2023-02-06T10:37:55.416Z,100073.09
2023-02-06T10:42:16.410Z,100071.06
2023-02-06T10:46:29.103Z,100070.09
2023-02-06T10:50:39.420Z,100064.72
2023-02-06T10:54:50.527Z,100072.03
2023-02-06T10:58:56.988Z,100067.41
2023-02-06T11:03:07.695Z,100054.03
2023-02-06T11:07:17.903Z,100063.56
2023-02-06T11:11:21.971Z,100043.56
2023-02-06T11:15:50.450Z,100040.28
2023-02-06T11:19:53.377Z,100031.41
2023-02-06T11:24:16.518Z,100020.22
2023-02-06T11:28:21.633Z,100015.22
2023-02-06T11:32:50.168Z,100011.78
2023-02-06T11:37:32.575Z,100004.06
2023-02-06T11:41:34.605Z,100008.63
2023-02-06T11:45:37.013Z,100010.63
2023-02-06T11:49:39.278Z,99992.72
2023-02-06T11:53:58.653Z,99996.97
2023-02-06T11:58:06.721Z,99999.81
2023-02-06T12:02:28.994Z,99988.75
2023-02-06T12:06:35.996Z,99978.44
2023-02-06T12:10:54.231Z,99989.66
2023-02-06T12:15:10.290Z,99984.41
2023-02-06T12:19:33.724Z,99975.81
2023-02-06T12:23:49.893Z,99973.50
2023-02-06T12:27:56.803Z,99960.59
2023-02-06T12:32:24.097Z,99960.69
2023-02-06T12:36:36.734Z,99963.44
2023-02-06T12:40:55.765Z,99955.69
2023-02-06T12:45:31.582Z,99959.03
2023-02-06T12:49:57.426Z,99947.75
2023-02-06T12:54:04.964Z,99946.88
2023-02-06T12:58:32.370Z,99937.47
2023-02-06T13:03:05.392Z,99947.72
2023-02-06T13:07:14.486Z,99939.06
2023-02-06T13:11:28.745Z,99937.44
2023-02-06T13:15:41.429Z,99929.75
2023-02-06T13:19:43.419Z,99952.25
2023-02-06T13:24:06.496Z,99952.13
2023-02-06T13:28:21.632Z,99944.16
2023-02-06T13:32:23.623Z,99943.28
2023-02-06T13:36:41.329Z,99936.41
2023-02-06T13:40:43.363Z,99950.38
2023-02-06T13:44:45.638Z,99954.53
2023-02-06T13:49:02.596Z,99948.44
2023-02-06T13:53:10.523Z,99946.81
2023-02-06T13:57:38.533Z,99940.69
2023-02-06T14:01:41.394Z,99946.84
2023-02-06T14:06:20.655Z,99945.28
2023-02-06T14:10:37.910Z,99940.16
2023-02-06T14:15:09.251Z,99935.88
2023-02-06T14:19:26.716Z,99926.38
2023-02-06T14:23:36.581Z,99932.34
2023-02-06T14:27:51.424Z,99937.50
2023-02-06T14:32:24.723Z,99935.75
2023-02-06T14:36:52.328Z,99945.22
2023-02-06T14:40:59.241Z,99937.22
2023-02-06T14:45:22.076Z,99938.88
2023-02-06T14:49:36.412Z,99941.47
2023-02-06T14:53:39.941Z,99924.13
2023-02-06T14:57:45.247Z,99933.72
2023-02-06T15:01:50.798Z,99929.34
2023-02-06T15:06:07.059Z,99929.34
2023-02-06T15:10:28.045Z,99920.72
2023-02-06T15:14:32.579Z,99905.19
2023-02-06T15:18:36.042Z,99909.53
2023-02-06T15:22:38.200Z,99911.16
2023-02-06T15:27:01.995Z,99917.06
2023-02-06T15:31:04.768Z,99914.28
2023-02-06T15:35:23.576Z,99916.78
2023-02-06T15:39:26.196Z,99921.03
2023-02-06T15:43:28.821Z,99915.56
2023-02-06T15:47:31.158Z,99914.53
2023-02-06T15:51:49.016Z,99918.72
2023-02-06T15:55:53.820Z,99923.03
2023-02-06T15:59:59.486Z,99924.56
2023-02-06T16:04:12.762Z,99926.03
2023-02-06T16:08:25.432Z,99924.94
2023-02-06T16:12:34.178Z,99938.63
2023-02-06T16:16:36.191Z,99936.81
2023-02-06T16:20:42.275Z,99940.19
2023-02-06T16:24:44.639Z,99947.06
2023-02-06T16:29:09.869Z,99944.25
2023-02-06T16:33:31.525Z,99957.31
2023-02-06T16:37:33.490Z,99964.19
2023-02-06T16:41:38.168Z,99963.31
2023-02-06T16:45:40.592Z,99954.63
2023-02-06T16:49:43.256Z,99968.28
2023-02-06T16:53:48.202Z,99966.41
2023-02-06T16:57:53.483Z,99966.34
2023-02-06T17:01:55.981Z,99967.97
2023-02-06T17:05:58.163Z,99973.91
2023-02-06T17:10:01.653Z,99970.47
2023-02-06T17:14:03.905Z,99963.44
2023-02-06T17:18:05.944Z,99969.47
2023-02-06T17:22:09.634Z,99962.44
2023-02-06T17:26:14.439Z,99972.44
2023-02-06T17:30:22.135Z,99966.66
2023-02-06T17:34:25.512Z,99961.06
2023-02-06T17:38:27.582Z,99968.13
2023-02-06T17:42:31.820Z,99960.28
2023-02-06T17:46:33.889Z,99956.06
2023-02-06T17:50:37.372Z,99958.56
2023-02-06T17:54:40.146Z,99959.25
2023-02-06T17:58:43.279Z,99961.78
2023-02-06T18:02:45.630Z,99964.41
2023-02-06T18:06:47.925Z,99969.75
2023-02-06T18:10:49.966Z,99967.28
2023-02-06T18:14:52.000Z,99968.13
2023-02-06T18:18:54.350Z,99983.72
2023-02-06T18:22:56.373Z,99988.84
2023-02-06T18:26:58.399Z,99981.22
2023-02-06T18:31:03.666Z,99986.44
2023-02-06T18:35:07.344Z,99981.47
2023-02-06T18:39:10.583Z,99982.53
2023-02-06T18:43:14.177Z,99984.34
2023-02-06T18:47:17.418Z,99971.38
2023-02-06T18:51:19.432Z,99972.94
2023-02-06T18:55:21.708Z,99982.28
2023-02-06T18:59:23.854Z,99988.88
2023-02-06T19:03:25.997Z,99979.06
2023-02-06T19:07:28.483Z,99981.44
2023-02-06T19:11:30.531Z,99971.66
2023-02-06T19:15:35.784Z,99975.06
2023-02-06T19:19:37.853Z,99974.97
2023-02-06T19:23:40.064Z,99976.56
2023-02-06T19:27:42.165Z,99986.69
2023-02-06T19:31:44.142Z,99989.88
2023-02-06T19:35:46.236Z,100001.75
2023-02-06T19:39:48.379Z,99999.75
2023-02-06T19:43:52.793Z,100014.03
2023-02-06T19:47:54.852Z,100020.63
2023-02-06T19:51:56.907Z,100054.31
2023-02-06T19:55:58.887Z,100060.09
2023-02-06T20:00:00.904Z,100057.78
2023-02-06T20:04:03.257Z,100062.31
2023-02-06T20:08:05.263Z,100071.16
2023-02-06T20:12:08.873Z,100073.28
2023-02-06T20:16:19.564Z,100075.94
2023-02-06T20:20:21.599Z,100082.69
2023-02-06T20:24:26.554Z,100072.91
2023-02-06T20:28:28.822Z,100064.69
2023-02-06T20:32:30.982Z,100067.91
2023-02-06T20:36:33.092Z,100064.47
2023-02-06T20:40:35.834Z,100063.94
2023-02-06T20:44:38.056Z,100070.13
2023-02-06T20:48:40.032Z,100087.72
2023-02-06T20:52:42.081Z,100079.22
2023-02-06T20:56:44.343Z,100063.75
2023-02-06T21:00:46.846Z,100063.53
2023-02-06T21:04:52.028Z,100079.53
2023-02-06T21:08:59.422Z,100061.19
2023-02-06T21:13:02.023Z,100059.34
2023-02-06T21:17:04.053Z,100069.50
2023-02-06T21:21:11.879Z,100056.69
2023-02-06T21:25:13.922Z,100040.88
2023-02-06T21:29:16.555Z,100037.63
2023-02-06T21:33:18.566Z,100042.31
2023-02-06T21:37:22.498Z,100057.53
2023-02-06T21:41:24.516Z,100055.59
2023-02-06T21:45:26.581Z,100079.03
2023-02-06T21:49:28.604Z,100079.44
2023-02-06T21:53:30.676Z,100068.59
2023-02-06T21:57:32.755Z,100058.56
2023-02-06T22:01:35.201Z,100057.94
2023-02-06T22:05:37.822Z,100058.75
2023-02-06T22:09:40.183Z,100067.78
2023-02-06T22:13:42.717Z,100061.31
2023-02-06T22:17:44.796Z,100079.19
2023-02-06T22:21:46.825Z,100072.13
2023-02-06T22:25:48.849Z,100078.00
2023-02-06T22:29:53.783Z,100080.53
2023-02-06T22:33:57.903Z,100081.31
2023-02-06T22:37:59.888Z,100067.38
2023-02-06T22:42:02.116Z,100068.13
2023-02-06T22:46:05.872Z,100076.41
2023-02-06T22:50:08.214Z,100083.88
2023-02-06T22:54:10.383Z,100089.78
2023-02-06T22:58:12.383Z,100084.75
2023-02-06T23:02:14.487Z,100079.13
2023-02-06T23:06:16.836Z,100082.34
2023-02-06T23:10:18.941Z,100087.22
2023-02-06T23:14:21.004Z,100094.06
2023-02-06T23:18:24.145Z,100092.38
2023-02-06T23:22:26.406Z,100096.63
2023-02-06T23:26:29.055Z,100086.31
2023-02-06T23:30:31.120Z,100083.72
2023-02-06T23:34:33.179Z,100102.66
2023-02-06T23:38:35.790Z,100105.28
2023-02-06T23:42:37.849Z,100119.84
2023-02-06T23:46:40.418Z,100114.56
2023-02-06T23:50:42.417Z,100088.63
2023-02-06T23:54:44.554Z,100079.94
2023-02-06T23:58:47.363Z,100067.84
